createdAt,value
2023-05-17T00:01:48.141Z,1.40
2023-05-17T00:04:16.087Z,1.30
2023-05-17T00:06:43.915Z,1.60
2023-05-17T00:09:10.432Z,1.77
2023-05-17T00:11:37.053Z,1.55
2023-05-17T00:14:03.725Z,2.00
2023-05-17T00:16:30.286Z,1.38
2023-05-17T00:18:56.859Z,1.70
2023-05-17T00:21:25.148Z,1.85
2023-05-17T00:23:51.732Z,2.10
2023-05-17T00:26:18.253Z,1.85
2023-05-17T00:28:44.788Z,1.83
2023-05-17T00:31:11.401Z,2.33
2023-05-17T00:33:37.974Z,1.80
2023-05-17T00:36:05.426Z,1.92
2023-05-17T00:38:33.404Z,2.25
2023-05-17T00:41:00.002Z,2.17
2023-05-17T00:43:27.276Z,2.38
2023-05-17T00:45:53.851Z,2.38
2023-05-17T00:48:20.784Z,2.13
2023-05-17T00:50:48.059Z,2.75
2023-05-17T00:53:14.830Z,2.58
2023-05-17T00:55:43.285Z,2.67
2023-05-17T00:58:10.387Z,2.22
2023-05-17T01:00:37.515Z,1.88
2023-05-17T01:03:04.131Z,2.42
2023-05-17T01:05:31.073Z,2.13
2023-05-17T01:07:57.690Z,2.08
2023-05-17T01:10:31.032Z,2.42
2023-05-17T01:13:05.931Z,2.22
2023-05-17T01:15:36.642Z,2.10
2023-05-17T01:18:12.341Z,1.90
2023-05-17T01:20:41.906Z,2.53
2023-05-17T01:23:24.136Z,1.67
2023-05-17T01:25:57.415Z,2.20
2023-05-17T01:28:26.379Z,2.63
2023-05-17T01:30:57.481Z,2.80
2023-05-17T01:33:24.433Z,2.10
2023-05-17T01:35:51.126Z,2.38
2023-05-17T01:38:17.700Z,2.20
2023-05-17T01:40:52.126Z,2.50
2023-05-17T01:43:24.757Z,2.38
2023-05-17T01:46:00.691Z,2.65
2023-05-17T01:48:34.846Z,2.78
2023-05-17T01:51:02.467Z,2.50
2023-05-17T01:53:32.930Z,2.08
2023-05-17T01:56:03.942Z,2.40
2023-05-17T01:58:30.937Z,2.97
2023-05-17T02:01:01.142Z,2.45
2023-05-17T02:03:28.176Z,2.30
2023-05-17T02:05:54.819Z,2.88
2023-05-17T02:08:21.395Z,2.22
2023-05-17T02:10:47.956Z,2.53
2023-05-17T02:13:14.510Z,2.80
2023-05-17T02:15:41.073Z,2.40
2023-05-17T02:18:09.124Z,2.60
2023-05-17T02:20:35.771Z,2.65
2023-05-17T02:23:02.302Z,2.55
2023-05-17T02:25:29.074Z,2.50
2023-05-17T02:27:55.838Z,2.20
2023-05-17T02:30:22.396Z,2.10
2023-05-17T02:32:49.050Z,2.20
2023-05-17T02:35:17.091Z,2.38
2023-05-17T02:37:43.830Z,2.33
2023-05-17T02:40:10.986Z,2.55
2023-05-17T02:42:37.627Z,2.47
2023-05-17T02:45:04.833Z,1.80
2023-05-17T02:47:31.453Z,2.30
2023-05-17T02:49:58.095Z,2.22
2023-05-17T02:52:26.010Z,2.13
2023-05-17T02:54:52.513Z,2.33
2023-05-17T02:57:19.035Z,2.05
2023-05-17T02:59:45.570Z,2.20
2023-05-17T03:02:12.210Z,2.53
2023-05-17T03:04:38.880Z,2.70
2023-05-17T03:07:07.237Z,2.70
2023-05-17T03:09:35.683Z,2.72
2023-05-17T03:12:02.249Z,2.13
2023-05-17T03:14:28.784Z,2.53
2023-05-17T03:16:55.312Z,3.03
2023-05-17T03:19:21.963Z,2.80
2023-05-17T03:21:48.624Z,2.50
2023-05-17T03:24:15.226Z,2.72
2023-05-17T03:26:43.105Z,2.63
2023-05-17T03:29:09.645Z,2.65
2023-05-17T03:31:36.395Z,2.67
2023-05-17T03:34:03.058Z,3.10
2023-05-17T03:36:29.847Z,2.70
2023-05-17T03:38:56.397Z,2.97
2023-05-17T03:41:23.175Z,3.17
2023-05-17T03:43:51.104Z,3.45
2023-05-17T03:46:17.661Z,3.10
2023-05-17T03:48:44.265Z,2.97
2023-05-17T03:51:10.933Z,3.10
2023-05-17T03:53:37.484Z,2.95
2023-05-17T03:56:04.562Z,3.05
2023-05-17T03:58:31.139Z,2.95
2023-05-17T04:00:59.014Z,2.90
2023-05-17T04:03:25.697Z,4.05
2023-05-17T04:05:52.270Z,3.42
2023-05-17T04:08:18.781Z,2.33
2023-05-17T04:10:45.316Z,2.83
2023-05-17T04:13:11.866Z,3.38
2023-05-17T04:15:38.449Z,2.85
2023-05-17T04:18:06.671Z,2.83
2023-05-17T04:20:33.344Z,3.00
2023-05-17T04:22:59.900Z,3.60
2023-05-17T04:25:26.568Z,3.25
2023-05-17T04:27:53.277Z,3.47
2023-05-17T04:30:19.804Z,3.35
2023-05-17T04:32:46.342Z,3.40
2023-05-17T04:35:14.346Z,3.50
2023-05-17T04:37:40.886Z,3.70
2023-05-17T04:40:09.495Z,3.60
2023-05-17T04:42:36.058Z,3.15
2023-05-17T04:45:02.632Z,3.35
2023-05-17T04:47:29.284Z,3.70
2023-05-17T04:49:55.956Z,3.80
2023-05-17T04:52:23.823Z,3.63
2023-05-17T04:54:50.383Z,3.17
2023-05-17T04:57:16.930Z,3.40
2023-05-17T04:59:43.459Z,3.45
2023-05-17T05:02:10.055Z,3.78
2023-05-17T05:04:36.624Z,3.38
2023-05-17T05:07:03.144Z,3.38
2023-05-17T05:09:31.137Z,4.18
2023-05-17T05:11:57.763Z,3.45
2023-05-17T05:14:24.275Z,3.55
2023-05-17T05:16:50.829Z,3.42
2023-05-17T05:19:17.450Z,3.40
2023-05-17T05:21:45.294Z,4.22
2023-05-17T05:24:11.929Z,3.72
2023-05-17T05:26:39.812Z,4.50
2023-05-17T05:29:06.372Z,3.88
2023-05-17T05:31:32.912Z,4.22
2023-05-17T05:33:59.543Z,3.80
2023-05-17T05:36:26.143Z,4.75
2023-05-17T05:38:52.668Z,4.88
2023-05-17T05:41:19.204Z,4.88
2023-05-17T05:43:47.053Z,4.50
2023-05-17T05:46:13.702Z,3.88
2023-05-17T05:48:40.303Z,3.75
2023-05-17T05:51:06.937Z,4.18
2023-05-17T05:53:33.520Z,4.32
2023-05-17T05:56:00.071Z,4.22
2023-05-17T05:58:26.679Z,4.07
2023-05-17T06:00:54.570Z,4.32
2023-05-17T06:03:21.240Z,4.50
2023-05-17T06:05:47.857Z,3.60
2023-05-17T06:08:14.529Z,4.63
2023-05-17T06:10:41.138Z,4.03
2023-05-17T06:13:07.701Z,5.10
2023-05-17T06:15:34.254Z,4.90
2023-05-17T06:18:02.449Z,4.90
2023-05-17T06:20:29.262Z,4.50
2023-05-17T06:22:56.019Z,5.18
2023-05-17T06:25:22.560Z,4.50
2023-05-17T06:27:49.127Z,4.40
2023-05-17T06:30:15.663Z,4.30
2023-05-17T06:32:42.286Z,4.80
2023-05-17T06:35:11.189Z,3.50
2023-05-17T06:37:37.801Z,4.07
2023-05-17T06:40:15.075Z,4.65
2023-05-17T06:42:42.495Z,4.20
2023-05-17T06:45:10.541Z,4.30
2023-05-17T06:47:37.211Z,4.22
2023-05-17T06:50:04.079Z,4.50
2023-05-17T06:52:31.976Z,3.28
2023-05-17T06:54:58.534Z,3.30
2023-05-17T06:57:25.092Z,3.35
2023-05-17T06:59:51.631Z,3.05
2023-05-17T07:02:18.215Z,2.67
2023-05-17T07:04:44.806Z,2.50
2023-05-17T07:07:11.348Z,2.70
2023-05-17T07:09:39.250Z,1.88
2023-05-17T07:12:06.385Z,2.90
2023-05-17T07:14:33.035Z,2.63
2023-05-17T07:16:59.657Z,2.22
2023-05-17T07:19:27.286Z,2.10
2023-05-17T07:21:53.925Z,1.63
2023-05-17T07:24:20.498Z,1.95
2023-05-17T07:26:49.768Z,2.00
2023-05-17T07:29:17.388Z,2.13
2023-05-17T07:31:43.950Z,2.40
2023-05-17T07:34:10.508Z,2.17
2023-05-17T07:36:37.252Z,2.28
2023-05-17T07:39:03.991Z,2.35
2023-05-17T07:41:30.626Z,2.28
2023-05-17T07:43:58.552Z,2.35
2023-05-17T07:46:25.543Z,1.80
2023-05-17T07:48:52.376Z,2.20
2023-05-17T07:51:19.383Z,2.05
2023-05-17T07:53:46.043Z,1.83
2023-05-17T07:56:12.598Z,1.80
2023-05-17T07:58:39.210Z,1.45
2023-05-17T08:01:07.104Z,1.42
2023-05-17T08:03:33.834Z,1.65
2023-05-17T08:06:00.437Z,1.70
2023-05-17T08:08:27.101Z,1.35
2023-05-17T08:10:53.974Z,1.50
2023-05-17T08:13:20.517Z,1.60
2023-05-17T08:15:47.111Z,1.50
2023-05-17T08:18:15.491Z,1.83
2023-05-17T08:20:43.209Z,1.15
2023-05-17T08:23:09.832Z,1.33
2023-05-17T08:25:36.432Z,2.05
2023-05-17T08:28:03.244Z,1.45
2023-05-17T08:30:29.812Z,1.60
2023-05-17T08:32:56.626Z,1.67
2023-05-17T08:35:27.737Z,2.15
2023-05-17T08:37:55.320Z,1.40
2023-05-17T08:40:22.162Z,1.40
2023-05-17T08:42:50.275Z,2.42
2023-05-17T08:45:17.619Z,1.40
2023-05-17T08:47:45.551Z,0.98
2023-05-17T08:50:12.791Z,1.75
2023-05-17T08:52:45.674Z,2.25
2023-05-17T08:55:12.610Z,1.20
2023-05-17T08:57:39.411Z,1.70
2023-05-17T09:00:07.425Z,1.58
2023-05-17T09:02:34.062Z,1.40
2023-05-17T09:05:00.778Z,1.17
2023-05-17T09:07:27.402Z,2.35
2023-05-17T09:09:55.351Z,2.58
2023-05-17T09:12:24.794Z,1.75
2023-05-17T09:14:52.177Z,1.83
2023-05-17T09:17:20.654Z,1.33
2023-05-17T09:19:48.794Z,1.45
2023-05-17T09:22:17.890Z,1.50
2023-05-17T09:24:44.692Z,1.58
2023-05-17T09:27:17.979Z,1.38
2023-05-17T09:29:45.209Z,1.38
2023-05-17T09:32:16.479Z,1.10
2023-05-17T09:34:44.919Z,1.40
2023-05-17T09:37:15.373Z,1.45
2023-05-17T09:39:42.405Z,1.40
2023-05-17T09:42:08.957Z,1.25
2023-05-17T09:44:47.820Z,1.00
2023-05-17T09:47:22.952Z,1.23
2023-05-17T09:49:49.615Z,1.20
2023-05-17T09:52:17.990Z,1.35
2023-05-17T09:54:51.788Z,1.27
2023-05-17T09:57:18.487Z,1.17
2023-05-17T09:59:47.437Z,1.50
2023-05-17T10:02:20.020Z,1.38
2023-05-17T10:04:48.369Z,1.40
2023-05-17T10:07:17.735Z,1.52
2023-05-17T10:09:44.548Z,1.70
2023-05-17T10:12:13.534Z,2.05
2023-05-17T10:14:40.630Z,1.10
2023-05-17T10:17:09.048Z,1.42
2023-05-17T10:19:36.656Z,1.75
2023-05-17T10:22:18.861Z,1.50
2023-05-17T10:24:50.162Z,1.20
2023-05-17T10:27:17.440Z,1.20
2023-05-17T10:29:47.023Z,1.13
2023-05-17T10:32:18.990Z,1.00
2023-05-17T10:34:47.532Z,1.15
2023-05-17T10:37:19.664Z,1.45
2023-05-17T10:39:46.302Z,1.05
2023-05-17T10:42:15.650Z,1.25
2023-05-17T10:44:42.727Z,1.52
2023-05-17T10:47:10.505Z,1.30
2023-05-17T10:49:39.066Z,1.33
2023-05-17T10:52:12.309Z,1.50
2023-05-17T10:54:41.589Z,1.23
2023-05-17T10:57:09.121Z,1.15
2023-05-17T10:59:36.046Z,0.98
2023-05-17T11:02:04.539Z,0.77
2023-05-17T11:04:35.995Z,0.90
2023-05-17T11:07:26.007Z,1.10
2023-05-17T11:09:54.621Z,0.90
2023-05-17T11:12:33.804Z,1.75
2023-05-17T11:15:01.533Z,1.17
2023-05-17T11:20:05.480Z,0.80
2023-05-17T11:22:37.845Z,0.70
2023-05-17T11:25:09.448Z,0.95
2023-05-17T11:27:37.576Z,1.00
2023-05-17T11:30:17.671Z,0.82
2023-05-17T11:32:47.379Z,0.90
2023-05-17T11:35:14.056Z,1.05
2023-05-17T11:37:43.792Z,0.90
2023-05-17T11:40:11.192Z,1.20
2023-05-17T11:42:37.860Z,0.93
2023-05-17T11:45:05.663Z,0.95
2023-05-17T11:47:32.865Z,1.23
2023-05-17T11:50:01.747Z,1.15
2023-05-17T11:52:29.315Z,1.30
2023-05-17T11:54:58.526Z,0.77
2023-05-17T11:57:30.106Z,1.10
2023-05-17T12:00:00.603Z,1.23
2023-05-17T12:02:27.983Z,1.17
2023-05-17T12:04:54.836Z,1.05
2023-05-17T12:07:21.725Z,1.02
2023-05-17T12:09:48.553Z,0.93
2023-05-17T12:12:16.808Z,1.25
2023-05-17T12:14:43.937Z,0.90
2023-05-17T12:17:17.113Z,1.08
2023-05-17T12:19:43.814Z,1.13
2023-05-17T12:22:12.581Z,1.17
2023-05-17T12:24:40.046Z,0.93
2023-05-17T12:27:06.793Z,0.98
2023-05-17T12:29:34.751Z,1.33
2023-05-17T12:32:01.920Z,1.10
2023-05-17T12:34:30.053Z,1.05
2023-05-17T12:36:57.707Z,1.33
2023-05-17T12:39:24.856Z,1.10
2023-05-17T12:41:52.024Z,1.20
2023-05-17T12:44:19.957Z,1.10
2023-05-17T12:46:48.282Z,0.98
2023-05-17T12:49:14.988Z,1.55
2023-05-17T12:51:43.267Z,1.35
2023-05-17T12:54:10.631Z,1.50
2023-05-17T12:56:37.192Z,1.52
2023-05-17T12:59:05.017Z,1.20
2023-05-17T13:01:35.772Z,1.23
2023-05-17T13:04:04.279Z,1.45
2023-05-17T13:06:43.834Z,1.55
2023-05-17T13:09:10.494Z,0.95
2023-05-17T13:11:37.268Z,0.93
2023-05-17T13:14:03.855Z,0.90
2023-05-17T13:16:30.596Z,1.02
2023-05-17T13:18:57.237Z,1.20
2023-05-17T13:21:25.282Z,1.65
2023-05-17T13:23:51.840Z,0.82
2023-05-17T13:26:19.346Z,1.40
2023-05-17T13:28:45.922Z,1.30
2023-05-17T13:31:12.484Z,0.77
2023-05-17T13:33:39.134Z,0.73
2023-05-17T13:36:06.109Z,1.10
2023-05-17T13:38:34.067Z,0.98
2023-05-17T13:41:00.592Z,0.80
2023-05-17T13:43:27.183Z,0.75
2023-05-17T13:45:53.740Z,0.70
2023-05-17T13:48:20.660Z,1.02
2023-05-17T13:50:47.456Z,1.33
2023-05-17T13:53:13.963Z,1.15
2023-05-17T13:55:41.851Z,0.80
2023-05-17T13:58:08.393Z,0.88
2023-05-17T14:00:34.969Z,1.00
2023-05-17T14:03:01.633Z,0.80
2023-05-17T14:05:28.458Z,0.90
2023-05-17T14:07:54.995Z,1.10
2023-05-17T14:10:21.510Z,1.10
2023-05-17T14:12:49.369Z,1.00
2023-05-17T14:15:15.963Z,1.33
2023-05-17T14:17:42.622Z,1.00
2023-05-17T14:20:10.352Z,1.08
2023-05-17T14:22:36.984Z,1.30
2023-05-17T14:25:03.889Z,1.33
2023-05-17T14:27:30.415Z,1.00
2023-05-17T14:29:58.339Z,1.00
2023-05-17T14:32:24.921Z,0.90
2023-05-17T14:34:51.430Z,1.30
2023-05-17T14:37:18.002Z,1.13
2023-05-17T14:39:55.247Z,0.95
2023-05-17T14:42:31.145Z,0.77
2023-05-17T14:44:59.337Z,1.05
2023-05-17T14:47:25.854Z,1.48
2023-05-17T14:49:52.640Z,1.20
2023-05-17T14:52:19.198Z,1.30
2023-05-17T14:54:45.742Z,1.30
2023-05-17T14:57:12.238Z,1.20
2023-05-17T14:59:38.861Z,0.82
2023-05-17T15:02:06.861Z,0.90
2023-05-17T15:04:33.511Z,1.73
2023-05-17T15:07:00.094Z,1.30
2023-05-17T15:09:26.736Z,1.45
2023-05-17T15:11:53.276Z,1.15
2023-05-17T15:14:19.869Z,1.50
2023-05-17T15:16:46.554Z,1.35
2023-05-17T15:19:14.742Z,1.38
2023-05-17T15:21:41.472Z,0.98
2023-05-17T15:24:08.246Z,1.55
2023-05-17T15:26:35.089Z,1.10
2023-05-17T15:29:01.632Z,1.25
2023-05-17T15:31:28.416Z,1.13
2023-05-17T15:33:55.584Z,1.48
2023-05-17T15:36:23.761Z,1.10
2023-05-17T15:38:50.308Z,2.17
2023-05-17T15:41:17.981Z,1.02
2023-05-17T15:43:44.596Z,1.30
2023-05-17T15:46:11.136Z,2.05
2023-05-17T15:48:37.844Z,1.25
2023-05-17T15:51:04.871Z,1.15
2023-05-17T15:53:33.504Z,1.15
2023-05-17T15:56:00.060Z,1.27
2023-05-17T15:58:27.020Z,1.30
2023-05-17T16:00:54.037Z,1.40
2023-05-17T16:03:20.968Z,1.50
2023-05-17T16:05:47.552Z,1.20
2023-05-17T16:08:14.161Z,1.33
2023-05-17T16:10:42.073Z,1.67
2023-05-17T16:13:08.642Z,1.27
2023-05-17T16:15:35.173Z,1.48
2023-05-17T16:18:01.833Z,2.35
2023-05-17T16:20:28.460Z,1.52
2023-05-17T16:22:55.032Z,2.08
2023-05-17T16:25:23.435Z,1.02
2023-05-17T16:27:51.756Z,1.40
2023-05-17T16:30:19.214Z,1.70
2023-05-17T16:32:46.681Z,1.42
2023-05-17T16:35:13.376Z,1.20
2023-05-17T16:37:40.026Z,1.40
2023-05-17T16:40:07.921Z,1.27
2023-05-17T16:42:34.440Z,1.40
2023-05-17T16:45:02.420Z,1.80
2023-05-17T16:47:29.050Z,1.27
2023-05-17T16:49:55.777Z,1.50
2023-05-17T16:52:22.922Z,1.40
2023-05-17T16:54:49.467Z,1.23
2023-05-17T16:57:16.114Z,1.50
2023-05-17T16:59:42.672Z,1.42
2023-05-17T17:02:10.891Z,1.95
2023-05-17T17:04:37.426Z,1.33
2023-05-17T17:07:04.451Z,1.17
2023-05-17T17:09:30.995Z,1.30
2023-05-17T17:11:57.527Z,1.58
2023-05-17T17:14:24.063Z,1.40
2023-05-17T17:16:50.614Z,1.15
2023-05-17T17:19:18.782Z,1.10
2023-05-17T17:21:45.468Z,1.83
2023-05-17T17:24:12.042Z,2.28
2023-05-17T17:26:38.600Z,1.63
2023-05-17T17:29:05.374Z,1.73
2023-05-17T17:31:32.351Z,1.92
2023-05-17T17:33:58.937Z,1.40
2023-05-17T17:36:26.887Z,1.60
2023-05-17T17:38:53.468Z,1.88
2023-05-17T17:41:20.165Z,1.63
2023-05-17T17:43:46.824Z,1.83
2023-05-17T17:46:13.381Z,1.65
2023-05-17T17:48:39.951Z,1.50
2023-05-17T17:51:06.485Z,1.10
2023-05-17T17:53:34.375Z,1.60
2023-05-17T17:56:00.908Z,1.83
2023-05-17T17:58:27.464Z,1.60
2023-05-17T18:00:54.035Z,1.42
2023-05-17T18:03:20.597Z,1.80
2023-05-17T18:05:47.137Z,2.40
2023-05-17T18:08:13.686Z,1.45
2023-05-17T18:10:41.602Z,1.73
2023-05-17T18:13:08.120Z,1.23
2023-05-17T18:15:34.815Z,1.35
2023-05-17T18:18:01.413Z,1.45
2023-05-17T18:20:28.183Z,1.45
2023-05-17T18:22:54.901Z,1.10
2023-05-17T18:25:21.828Z,1.50
2023-05-17T18:27:49.688Z,1.38
2023-05-17T18:30:17.186Z,1.23
2023-05-17T18:32:43.827Z,1.75
2023-05-17T18:35:10.717Z,1.48
2023-05-17T18:37:37.251Z,1.45
2023-05-17T18:40:04.375Z,1.67
2023-05-17T18:42:30.980Z,1.20
2023-05-17T18:44:58.941Z,1.67
2023-05-17T18:47:25.785Z,1.98
2023-05-17T18:49:52.398Z,2.03
2023-05-17T18:52:19.002Z,1.92
2023-05-17T18:54:45.576Z,2.05
2023-05-17T18:57:12.146Z,2.90
2023-05-17T18:59:38.672Z,2.72
2023-05-17T19:02:07.095Z,1.98
2023-05-17T19:04:33.888Z,2.90
2023-05-17T19:07:00.529Z,1.90
2023-05-17T19:09:27.091Z,2.10
2023-05-17T19:11:53.646Z,4.22
2023-05-17T19:14:20.186Z,4.97
2023-05-17T19:16:46.738Z,3.17
2023-05-17T19:19:14.769Z,2.47
2023-05-17T19:21:41.384Z,1.55
2023-05-17T19:24:08.069Z,2.30
2023-05-17T19:26:34.723Z,2.83
2023-05-17T19:29:01.264Z,1.58
2023-05-17T19:31:27.849Z,1.73
2023-05-17T19:33:54.503Z,1.92
2023-05-17T19:36:22.496Z,1.85
2023-05-17T19:38:51.256Z,2.05
2023-05-17T19:41:18.710Z,2.05
2023-05-17T19:43:45.314Z,1.83
2023-05-17T19:46:11.877Z,5.22
2023-05-17T19:48:38.398Z,2.78
2023-05-17T19:51:05.006Z,1.50
2023-05-17T19:53:47.957Z,1.38
2023-05-17T19:56:18.830Z,2.72
2023-05-17T19:58:45.452Z,2.05
2023-05-17T20:01:12.003Z,1.35
2023-05-17T20:03:38.589Z,1.42
2023-05-17T20:06:05.286Z,1.73
2023-05-17T20:08:33.204Z,1.40
2023-05-17T20:10:59.764Z,2.05
2023-05-17T20:13:26.356Z,1.90
2023-05-17T20:15:52.930Z,1.45
2023-05-17T20:18:19.524Z,2.08
2023-05-17T20:20:46.098Z,1.23
2023-05-17T20:23:12.663Z,1.40
2023-05-17T20:25:40.584Z,1.40
2023-05-17T20:28:07.341Z,1.60
2023-05-17T20:30:33.973Z,1.33
2023-05-17T20:33:00.519Z,1.40
2023-05-17T20:35:27.083Z,1.73
2023-05-17T20:37:53.662Z,2.72
2023-05-17T20:40:20.261Z,1.40
2023-05-17T20:42:48.154Z,1.83
2023-05-17T20:45:14.820Z,1.80
2023-05-17T20:47:41.452Z,1.75
2023-05-17T20:50:09.386Z,2.17
2023-05-17T20:52:39.262Z,2.47
2023-05-17T20:55:07.510Z,2.50
2023-05-17T20:57:34.066Z,1.73
2023-05-17T21:00:01.991Z,2.53
2023-05-17T21:02:28.643Z,2.67
2023-05-17T21:04:55.294Z,1.90
2023-05-17T21:07:22.124Z,1.90
2023-05-17T21:09:48.655Z,1.80
2023-05-17T21:12:15.230Z,1.63
2023-05-17T21:14:41.961Z,2.30
2023-05-17T21:17:09.846Z,1.70
2023-05-17T21:19:36.361Z,1.85
2023-05-17T21:22:03.114Z,1.55
2023-05-17T21:24:29.728Z,2.47
2023-05-17T21:26:56.258Z,2.20
2023-05-17T21:29:22.925Z,2.03
2023-05-17T21:31:49.627Z,2.08
2023-05-17T21:34:17.608Z,1.65
2023-05-17T21:36:44.239Z,1.52
2023-05-17T21:39:10.803Z,1.83
2023-05-17T21:41:37.381Z,2.33
2023-05-17T21:44:04.174Z,1.50
2023-05-17T21:46:30.774Z,1.85
2023-05-17T21:48:57.393Z,1.98
2023-05-17T21:51:25.401Z,2.17
2023-05-17T21:53:51.983Z,1.67
2023-05-17T21:56:18.503Z,1.88
2023-05-17T21:58:45.011Z,1.83
2023-05-17T22:01:11.630Z,1.90
2023-05-17T22:03:38.260Z,1.95
2023-05-17T22:06:05.482Z,1.45
2023-05-17T22:08:33.355Z,1.92
2023-05-17T22:10:59.963Z,1.58
2023-05-17T22:13:26.978Z,1.52
2023-05-17T22:15:53.784Z,1.50
2023-05-17T22:18:20.313Z,1.63
2023-05-17T22:20:47.021Z,1.60
2023-05-17T22:23:13.576Z,1.77
2023-05-17T22:25:41.549Z,1.42
2023-05-17T22:28:08.093Z,1.63
2023-05-17T22:30:34.736Z,1.40
2023-05-17T22:33:01.332Z,1.33
2023-05-17T22:35:28.049Z,1.67
2023-05-17T22:37:54.573Z,1.30
2023-05-17T22:40:21.219Z,1.30
2023-05-17T22:42:49.189Z,1.80
2023-05-17T22:45:15.709Z,1.65
2023-05-17T22:47:42.427Z,1.70
2023-05-17T22:50:10.152Z,1.30
2023-05-17T22:52:36.760Z,2.47
2023-05-17T22:55:03.613Z,2.15
2023-05-17T22:57:30.134Z,2.05
2023-05-17T22:59:58.048Z,1.95
2023-05-17T23:02:24.607Z,1.50
2023-05-17T23:04:51.202Z,1.80
2023-05-17T23:07:17.726Z,1.40
2023-05-17T23:09:44.297Z,1.40
2023-05-17T23:12:10.883Z,1.70
2023-05-17T23:14:37.460Z,1.45
2023-05-17T23:17:05.797Z,1.50
2023-05-17T23:19:33.300Z,1.58
2023-05-17T23:22:00.207Z,1.35
2023-05-17T23:24:26.716Z,1.85
2023-05-17T23:26:53.235Z,1.60
2023-05-17T23:29:19.751Z,1.58
2023-05-17T23:31:46.296Z,2.08
2023-05-17T23:34:14.344Z,1.73
2023-05-17T23:36:40.965Z,1.30
2023-05-17T23:39:07.663Z,1.80
2023-05-17T23:41:34.299Z,2.10
2023-05-17T23:44:00.817Z,2.10
2023-05-17T23:46:27.371Z,2.03
2023-05-17T23:48:53.960Z,2.30
2023-05-17T23:51:21.901Z,1.83
2023-05-17T23:53:48.493Z,2.05
2023-05-17T23:56:15.531Z,1.73
2023-05-17T23:58:42.132Z,1.90
